This is the latest recevied weather packets stored in our database for station/object OM8AKX-12. If no packets are shown the sender has not sent any weather packets the latest 10 day(s).
| Time | Temp. | Humidity | Pressure | Rain* | Wind** | Luminosity | Snow |
|---|---|---|---|---|---|---|---|
| 1778151318 | 21.11° C | 61% | 1008.1 hPa | - | - | - | - |
| 1778150418 | 20° C | 64% | 1008.1 hPa | - | - | - | - |
| 1778149518 | 20° C | 62% | 1008 hPa | - | - | - | - |
| 1778148618 | 20.56° C | 56% | 1008 hPa | - | - | - | - |
| 1778147718 | 21.11° C | 56% | 1007.9 hPa | - | - | - | - |
| 1778146818 | 22.22° C | 54% | 1008 hPa | - | - | - | - |
| 1778145918 | 21.67° C | 55% | 1007.9 hPa | - | - | - | - |
| 1778145018 | 21.11° C | 56% | 1008 hPa | - | - | - | - |
| 1778144118 | 21.11° C | 57% | 1007.7 hPa | - | - | - | - |
| 1778143218 | 22.22° C | 53% | 1007.6 hPa | - | - | - | - |
| 1778142318 | 21.11° C | 58% | 1007.7 hPa | - | - | - | - |
| 1778141418 | 20° C | 61% | 1007.7 hPa | - | - | - | - |
| 1778140518 | 21.11° C | 62% | 1007.7 hPa | - | - | - | - |
| 1778139618 | 20.56° C | 67% | 1007.6 hPa | - | - | - | - |
| 1778138717 | 20.56° C | 67% | 1007.5 hPa | - | - | - | - |
| 1778137818 | 20° C | 71% | 1007.4 hPa | - | - | - | - |
| 1778136917 | 18.89° C | 70% | 1007.5 hPa | - | - | - | - |
| 1778136018 | 19.44° C | 69% | 1007.4 hPa | - | - | - | - |
| 1778135117 | 19.44° C | 69% | 1007.3 hPa | - | - | - | - |
| 1778134217 | 17.22° C | 82% | 1007.2 hPa | - | - | - | - |
| 1778133317 | 16.67° C | 81% | 1007.2 hPa | - | - | - | - |
| 1778132417 | 17.22° C | 82% | 1007 hPa | - | - | - | - |
| 1778131517 | 16.67° C | 88% | 1007.2 hPa | - | - | - | - |
| 1778130618 | 15.56° C | 95% | 1006.9 hPa | - | - | - | - |
| 1778127017 | 13.89° C | 100% | 1006.6 hPa | - | - | - | - |
* Rain since midnight (hover to see other rain measurements)
** Current wind speed in m/s (hover to see current wind gust speed)